Time;durP1;ratioP1;P1;durP2;ratioP2;P2;SDS_P1;SDS_P2;PMS_P1;PMS_P2;Temp;Humidity;BMP_temperature;BMP_pressure;BME280_temperature;BME280_humidity;BME280_pressure;Samples;Min_cycle;Max_cycle;Signal;HPM_P1;HPM_P2
2021/09/11 00:18:33;;;;;;;18.75;3.37;;;;;;;;;;4244496;28;20629;-65
2021/09/11 00:20:59;;;;;;;40.20;3.30;;;;;;;;;;4148145;34;20107;-66
2021/09/11 00:23:25;;;;;;;20.23;3.20;;;;;;;;;;4136879;34;20130;-66
2021/09/11 00:25:51;;;;;;;17.48;2.72;;;;;;;;;;4149770;34;20543;-66
2021/09/11 00:28:17;;;;;;;34.80;2.90;;;;;;;;;;4148855;34;20106;-66
2021/09/11 00:30:43;;;;;;;35.83;3.17;;;;;;;;;;4152020;34;20146;-65
2021/09/11 00:33:09;;;;;;;7.95;2.85;;;;;;;;;;4150356;34;20577;-66
2021/09/11 00:35:35;;;;;;;5.30;2.67;;;;;;;;;;4151527;34;20087;-65
2021/09/11 00:38:01;;;;;;;8.38;2.60;;;;;;;;;;4151798;34;20121;-66
2021/09/11 00:40:27;;;;;;;3.10;2.53;;;;;;;;;;4150080;34;20114;-65
2021/09/11 00:42:53;;;;;;;5.37;3.00;;;;;;;;;;4151800;34;20504;-67
2021/09/11 00:45:21;;;;;;;4.05;3.05;;;;;;;;;;4151636;34;20507;-67
2021/09/11 00:47:47;;;;;;;4.72;3.05;;;;;;;;;;4150253;34;20243;-65
2021/09/11 00:50:13;;;;;;;3.00;2.55;;;;;;;;;;4151577;34;20542;-65
2021/09/11 00:52:40;;;;;;;7.00;2.85;;;;;;;;;;4151251;34;20227;-66
2021/09/11 00:55:07;;;;;;;6.30;2.95;;;;;;;;;;4151453;34;20090;-66
2021/09/11 00:57:33;;;;;;;10.88;3.00;;;;;;;;;;4151413;34;20131;-65
2021/09/11 00:59:59;;;;;;;5.10;2.40;;;;;;;;;;4139101;34;20174;-66
2021/09/11 01:02:25;;;;;;;5.47;2.80;;;;;;;;;;4150424;34;20145;-66
2021/09/11 01:04:50;;;;;;;3.58;2.78;;;;;;;;;;4151366;34;20199;-65
2021/09/11 01:07:16;;;;;;;3.42;2.97;;;;;;;;;;4138812;34;20215;-65
2021/09/11 01:09:42;;;;;;;5.43;3.08;;;;;;;;;;4138780;34;20119;-66
2021/09/11 01:12:08;;;;;;;9.02;3.47;;;;;;;;;;4149921;34;20215;-66
2021/09/11 01:14:34;;;;;;;6.90;3.10;;;;;;;;;;4138732;34;20190;-66
2021/09/11 01:17:00;;;;;;;7.78;3.30;;;;;;;;;;4151202;34;20127;-66
2021/09/11 01:19:26;;;;;;;5.57;2.90;;;;;;;;;;4138862;34;20181;-65
2021/09/11 01:21:52;;;;;;;7.45;3.22;;;;;;;;;;4151288;34;20205;-67
2021/09/11 01:24:18;;;;;;;4.43;3.50;;;;;;;;;;4149890;34;20119;-65
2021/09/11 01:26:44;;;;;;;9.75;3.35;;;;;;;;;;4150039;34;20254;-65
2021/09/11 01:29:10;;;;;;;9.52;3.37;;;;;;;;;;4149984;34;20167;-66
2021/09/11 01:31:36;;;;;;;5.90;3.30;;;;;;;;;;4149785;34;20109;-66
2021/09/11 01:34:02;;;;;;;5.30;3.25;;;;;;;;;;4151404;34;20129;-67
2021/09/11 01:36:29;;;;;;;5.18;3.55;;;;;;;;;;4150117;34;20115;-67
2021/09/11 01:38:55;;;;;;;6.70;3.58;;;;;;;;;;4150861;34;20211;-65
2021/09/11 01:41:21;;;;;;;7.15;3.67;;;;;;;;;;4149754;34;20119;-66
2021/09/11 01:43:47;;;;;;;6.50;4.22;;;;;;;;;;4151323;34;20559;-66
2021/09/11 01:46:12;;;;;;;9.15;4.40;;;;;;;;;;4151131;34;20474;-66
2021/09/11 01:48:40;;;;;;;9.00;4.10;;;;;;;;;;4149560;34;20212;-67
2021/09/11 01:51:06;;;;;;;4.85;3.60;;;;;;;;;;4149875;34;20110;-65
2021/09/11 01:53:32;;;;;;;4.68;3.75;;;;;;;;;;4149517;34;20084;-66
2021/09/11 01:55:58;;;;;;;3.92;3.33;;;;;;;;;;4151051;34;20091;-66
2021/09/11 01:58:24;;;;;;;3.97;3.50;;;;;;;;;;4150907;34;20647;-66
2021/09/11 02:00:50;;;;;;;5.45;3.92;;;;;;;;;;4150947;34;20118;-67
2021/09/11 02:03:16;;;;;;;5.80;3.50;;;;;;;;;;4151018;34;20518;-67
2021/09/11 02:05:42;;;;;;;3.87;3.03;;;;;;;;;;4160622;34;20119;-65
2021/09/11 02:08:15;;;;;;;4.78;3.17;;;;;;;;;;4151125;34;20115;-66
2021/09/11 02:10:41;;;;;;;3.80;3.37;;;;;;;;;;4150884;34;20117;-65
2021/09/11 02:13:07;;;;;;;4.18;3.15;;;;;;;;;;4160645;34;20122;-67
2021/09/11 02:15:33;;;;;;;5.65;2.97;;;;;;;;;;4150620;34;20099;-66
2021/09/11 02:17:59;;;;;;;5.93;3.47;;;;;;;;;;4160752;34;20122;-67
2021/09/11 02:20:25;;;;;;;4.97;3.20;;;;;;;;;;4146241;34;20107;-67
2021/09/11 02:22:51;;;;;;;6.28;3.47;;;;;;;;;;4150830;34;20300;-67
2021/09/11 02:25:17;;;;;;;6.37;4.55;;;;;;;;;;4149395;34;20243;-67
2021/09/11 02:27:43;;;;;;;9.50;6.00;;;;;;;;;;4138222;34;20142;-67
2021/09/11 02:30:10;;;;;;;13.00;8.38;;;;;;;;;;4149371;34;20115;-67
2021/09/11 02:32:35;;;;;;;16.75;11.20;;;;;;;;;;4150761;34;20127;-66
2021/09/11 02:35:01;;;;;;;21.75;11.68;;;;;;;;;;4149549;34;20280;-67
2021/09/11 02:37:27;;;;;;;12.02;6.37;;;;;;;;;;4150763;34;20115;-66
2021/09/11 02:39:53;;;;;;;10.65;4.40;;;;;;;;;;4149280;34;20471;-67
2021/09/11 02:42:19;;;;;;;10.45;3.97;;;;;;;;;;4149385;34;20120;-66
2021/09/11 02:44:45;;;;;;;26.73;3.03;;;;;;;;;;4150644;34;20104;-66
2021/09/11 02:47:12;;;;;;;12.63;3.15;;;;;;;;;;4150440;34;20122;-66
2021/09/11 02:49:38;;;;;;;20.10;3.70;;;;;;;;;;4150495;34;20529;-67
2021/09/11 02:52:04;;;;;;;18.02;2.50;;;;;;;;;;4149793;34;20622;-67
2021/09/11 02:54:30;;;;;;;15.30;2.65;;;;;;;;;;4138200;34;20107;-66
2021/09/11 02:56:56;;;;;;;13.52;2.67;;;;;;;;;;4150572;34;20117;-66
2021/09/11 02:59:22;;;;;;;6.05;2.62;;;;;;;;;;4150656;34;20134;-65
2021/09/11 03:01:48;;;;;;;9.50;3.03;;;;;;;;;;4148911;34;20154;-66
2021/09/11 03:04:14;;;;;;;13.20;3.03;;;;;;;;;;4148973;34;20113;-67
2021/09/11 03:06:40;;;;;;;14.52;3.10;;;;;;;;;;4150354;34;20118;-67
2021/09/11 03:09:05;;;;;;;11.07;3.40;;;;;;;;;;4150777;34;20106;-66
2021/09/11 03:11:31;;;;;;;6.43;3.08;;;;;;;;;;4149070;34;20143;-65
2021/09/11 03:13:57;;;;;;;7.75;3.40;;;;;;;;;;4150360;34;20262;-67
2021/09/11 03:16:23;;;;;;;8.10;2.92;;;;;;;;;;4148924;34;20627;-66
2021/09/11 03:18:49;;;;;;;13.88;3.45;;;;;;;;;;4150005;34;20721;-66
2021/09/11 03:21:15;;;;;;;10.20;4.62;;;;;;;;;;4150146;34;20103;-67
2021/09/11 03:23:41;;;;;;;10.85;4.93;;;;;;;;;;4149071;34;20158;-67
2021/09/11 03:26:07;;;;;;;13.52;6.50;;;;;;;;;;4148864;34;20135;-67
2021/09/11 03:28:33;;;;;;;11.82;6.25;;;;;;;;;;4149100;34;20626;-66
2021/09/11 03:30:59;;;;;;;16.33;5.20;;;;;;;;;;4149010;34;20138;-66
2021/09/11 03:33:25;;;;;;;17.25;5.55;;;;;;;;;;4149009;34;20486;-67
2021/09/11 03:35:51;;;;;;;8.07;5.10;;;;;;;;;;4150080;34;20135;-67
2021/09/11 03:38:16;;;;;;;8.63;4.55;;;;;;;;;;4148811;34;20091;-66
2021/09/11 03:40:42;;;;;;;9.88;5.65;;;;;;;;;;4150209;34;20532;-66
2021/09/11 03:43:08;;;;;;;8.02;4.87;;;;;;;;;;4150206;34;20103;-66
2021/09/11 03:45:34;;;;;;;9.48;5.25;;;;;;;;;;4148883;34;20188;-67
2021/09/11 03:48:00;;;;;;;9.40;5.95;;;;;;;;;;4150222;34;20107;-67
2021/09/11 03:50:26;;;;;;;10.82;5.18;;;;;;;;;;4150021;34;20211;-67
2021/09/11 03:52:52;;;;;;;7.95;5.62;;;;;;;;;;4150138;34;20118;-66
2021/09/11 03:55:18;;;;;;;9.35;5.35;;;;;;;;;;4149968;34;20107;-65
2021/09/11 03:57:44;;;;;;;11.00;5.68;;;;;;;;;;4149880;34;20103;-66
2021/09/11 04:00:11;;;;;;;10.20;5.30;;;;;;;;;;4149755;34;20127;-67
2021/09/11 04:02:37;;;;;;;7.00;4.35;;;;;;;;;;4149729;34;20154;-67
2021/09/11 04:05:04;;;;;;;8.68;5.32;;;;;;;;;;4148524;34;20110;-66
2021/09/11 04:07:30;;;;;;;6.35;4.53;;;;;;;;;;4149846;34;20107;-66
2021/09/11 04:09:56;;;;;;;3.90;2.80;;;;;;;;;;4149765;34;20115;-67
2021/09/11 04:12:22;;;;;;;5.75;3.55;;;;;;;;;;4149767;34;20138;-66
2021/09/11 04:14:48;;;;;;;6.00;3.65;;;;;;;;;;4137168;34;20087;-66
2021/09/11 04:17:14;;;;;;;4.18;3.25;;;;;;;;;;4149594;34;20162;-67
2021/09/11 04:19:40;;;;;;;3.50;2.83;;;;;;;;;;4148184;34;20111;-66
2021/09/11 04:22:07;;;;;;;3.33;2.70;;;;;;;;;;4149878;34;20534;-67
2021/09/11 04:24:32;;;;;;;4.10;2.78;;;;;;;;;;4149923;34;20103;-67
2021/09/11 04:26:59;;;;;;;5.37;2.72;;;;;;;;;;4149892;34;20131;-66
2021/09/11 04:29:24;;;;;;;3.78;2.90;;;;;;;;;;4149675;34;20115;-66
2021/09/11 04:31:50;;;;;;;3.03;2.55;;;;;;;;;;4149582;34;20470;-66
2021/09/11 04:34:16;;;;;;;3.85;2.72;;;;;;;;;;4149808;34;20119;-65
2021/09/11 04:36:42;;;;;;;3.40;2.47;;;;;;;;;;4148352;34;20119;-68
2021/09/11 04:39:08;;;;;;;3.60;2.97;;;;;;;;;;4149362;34;20143;-66
2021/09/11 04:44:18;;;;;;;3.33;2.50;;;;;;;;;;4139407;28;20215;-64
2021/09/11 04:47:15;;;;;;;5.15;2.50;;;;;;;;;;4131776;34;20118;-66
2021/09/11 04:49:42;;;;;;;4.05;2.70;;;;;;;;;;4136107;34;20123;-67
2021/09/11 04:52:17;;;;;;;3.55;2.50;;;;;;;;;;4131054;34;20100;-64
2021/09/11 04:54:44;;;;;;;4.97;2.53;;;;;;;;;;4134631;34;20120;-63
2021/09/11 04:57:11;;;;;;;6.18;3.10;;;;;;;;;;4134591;34;20127;-68
2021/09/11 04:59:37;;;;;;;4.37;3.47;;;;;;;;;;4130427;34;20174;-66
2021/09/11 05:02:03;;;;;;;2.97;2.67;;;;;;;;;;4129886;34;20651;-65
2021/09/11 05:04:29;;;;;;;5.47;2.90;;;;;;;;;;4128830;34;20106;-63
2021/09/11 05:06:55;;;;;;;4.70;2.72;;;;;;;;;;4129249;34;20120;-66
2021/09/11 05:09:23;;;;;;;3.58;2.42;;;;;;;;;;4129514;34;20224;-62
2021/09/11 05:11:49;;;;;;;2.67;2.35;;;;;;;;;;4133365;34;20194;-64
2021/09/11 05:14:17;;;;;;;4.78;3.65;;;;;;;;;;4129176;34;20139;-64
2021/09/11 05:16:44;;;;;;;4.80;2.72;;;;;;;;;;4130018;34;20645;-66
2021/09/11 05:19:12;;;;;;;5.03;2.50;;;;;;;;;;4119600;34;20467;-67
2021/09/11 05:21:39;;;;;;;2.80;2.53;;;;;;;;;;4135530;34;20092;-64
2021/09/11 05:24:05;;;;;;;3.53;2.55;;;;;;;;;;4124867;34;20220;-65
2021/09/11 05:26:31;;;;;;;7.40;2.62;;;;;;;;;;4136203;34;20131;-65
2021/09/11 05:28:57;;;;;;;5.70;3.25;;;;;;;;;;4137655;34;20103;-64
2021/09/11 05:31:23;;;;;;;5.93;3.20;;;;;;;;;;4137524;34;20127;-65
2021/09/11 05:33:49;;;;;;;5.70;2.97;;;;;;;;;;4134987;34;20536;-67
2021/09/11 05:36:15;;;;;;;5.30;2.60;;;;;;;;;;4137495;34;20132;-66
2021/09/11 05:38:41;;;;;;;3.10;2.50;;;;;;;;;;4137263;34;20243;-66
2021/09/11 05:41:06;;;;;;;3.50;2.80;;;;;;;;;;4136115;34;20154;-64
2021/09/11 05:43:32;;;;;;;6.20;2.95;;;;;;;;;;4134984;34;20226;-67
2021/09/11 05:45:58;;;;;;;4.55;3.00;;;;;;;;;;4121167;34;20106;-65
2021/09/11 05:48:24;;;;;;;3.37;2.85;;;;;;;;;;4119342;34;20531;-68
2021/09/11 05:50:50;;;;;;;6.70;2.55;;;;;;;;;;4119285;34;20463;-67
2021/09/11 05:54:00;;;;;;;5.53;3.28;;;;;;;;;;4117098;34;20135;-69
2021/09/11 05:56:42;;;;;;;4.32;2.85;;;;;;;;;;4119932;34;20641;-66
2021/09/11 05:59:08;;;;;;;3.05;2.70;;;;;;;;;;4121950;34;20115;-65
2021/09/11 06:01:34;;;;;;;6.97;2.47;;;;;;;;;;4122576;34;20115;-66
2021/09/11 06:04:00;;;;;;;7.12;2.87;;;;;;;;;;4123159;34;20239;-66
2021/09/11 06:06:26;;;;;;;9.18;3.22;;;;;;;;;;4122121;34;20139;-66
2021/09/11 06:08:52;;;;;;;3.58;2.83;;;;;;;;;;4120971;34;20937;-66
2021/09/11 06:11:18;;;;;;;8.13;3.00;;;;;;;;;;4110303;34;20542;-65
2021/09/11 06:13:44;;;;;;;3.17;2.67;;;;;;;;;;4110676;34;20136;-64
2021/09/11 06:16:10;;;;;;;2.37;2.12;;;;;;;;;;4110735;34;20224;-66
2021/09/11 06:18:36;;;;;;;3.37;2.90;;;;;;;;;;4097337;34;20479;-70
2021/09/11 06:21:02;;;;;;;5.12;2.40;;;;;;;;;;4109190;34;20151;-67
2021/09/11 06:23:27;;;;;;;2.65;2.42;;;;;;;;;;4109640;34;20116;-71
2021/09/11 06:25:53;;;;;;;3.28;2.10;;;;;;;;;;4109517;34;20136;-72
2021/09/11 06:28:24;;;;;;;2.40;1.90;;;;;;;;;;4123996;34;20126;-68
2021/09/11 06:30:50;;;;;;;3.75;2.10;;;;;;;;;;4101658;34;20174;-68
2021/09/11 06:33:17;;;;;;;2.80;2.15;;;;;;;;;;4123740;34;20121;-62
2021/09/11 06:35:44;;;;;;;7.45;3.55;;;;;;;;;;4100569;34;20528;-65
2021/09/11 06:38:10;;;;;;;2.75;2.30;;;;;;;;;;4123841;34;20541;-63
2021/09/11 06:40:36;;;;;;;2.37;2.17;;;;;;;;;;4123811;34;20123;-68
2021/09/11 06:43:02;;;;;;;5.20;2.08;;;;;;;;;;4130306;34;20128;-66
2021/09/11 06:45:28;;;;;;;3.37;2.00;;;;;;;;;;4137206;34;20543;-72
2021/09/11 06:47:53;;;;;;;2.37;2.00;;;;;;;;;;4135990;34;20122;-66
2021/09/11 06:50:19;;;;;;;2.92;2.30;;;;;;;;;;4137140;34;20236;-66
2021/09/11 06:52:45;;;;;;;2.50;2.10;;;;;;;;;;4136935;34;20100;-74
2021/09/11 06:55:12;;;;;;;4.43;1.90;;;;;;;;;;4136876;34;20111;-68
2021/09/11 06:57:38;;;;;;;3.95;2.33;;;;;;;;;;4137136;34;20214;-67
2021/09/11 07:00:05;;;;;;;2.72;2.17;;;;;;;;;;4136469;34;20103;-67
2021/09/11 07:02:31;;;;;;;2.83;2.03;;;;;;;;;;4137023;34;20127;-68
2021/09/11 07:04:57;;;;;;;3.03;1.90;;;;;;;;;;4137129;34;20470;-67
2021/09/11 07:07:23;;;;;;;4.78;2.17;;;;;;;;;;4136720;34;20130;-66
2021/09/11 07:09:49;;;;;;;3.05;1.87;;;;;;;;;;4136888;34;20122;-65
2021/09/11 07:12:16;;;;;;;3.80;2.42;;;;;;;;;;4135542;34;20562;-69
2021/09/11 07:14:43;;;;;;;2.85;2.10;;;;;;;;;;4136871;34;20111;-67
2021/09/11 07:17:09;;;;;;;5.80;2.20;;;;;;;;;;4136979;34;20198;-66
2021/09/11 07:19:35;;;;;;;4.50;2.55;;;;;;;;;;4137089;34;20547;-67
2021/09/11 07:22:01;;;;;;;2.72;2.20;;;;;;;;;;4135285;34;20104;-65
2021/09/11 07:24:27;;;;;;;4.65;2.80;;;;;;;;;;4135356;34;20131;-66
2021/09/11 07:26:53;;;;;;;4.47;2.00;;;;;;;;;;4136667;34;20108;-65
2021/09/11 07:29:19;;;;;;;4.87;2.10;;;;;;;;;;4135366;34;20130;-66
2021/09/11 07:31:45;;;;;;;2.30;1.80;;;;;;;;;;4136691;34;20143;-65
2021/09/11 07:34:11;;;;;;;6.93;2.87;;;;;;;;;;4136932;34;20123;-68
2021/09/11 07:36:37;;;;;;;2.92;1.70;;;;;;;;;;4136350;34;20133;-66
2021/09/11 07:39:03;;;;;;;4.50;1.95;;;;;;;;;;4136604;34;20123;-67
2021/09/11 07:41:29;;;;;;;3.40;1.87;;;;;;;;;;4136588;34;20475;-66
2021/09/11 07:43:58;;;;;;;3.08;2.15;;;;;;;;;;4136677;34;20131;-67
2021/09/11 07:46:25;;;;;;;2.17;1.80;;;;;;;;;;4135077;34;20118;-69
2021/09/11 07:48:58;;;;;;;3.72;1.75;;;;;;;;;;4122673;34;20639;-68
2021/09/11 07:51:26;;;;;;;2.03;1.80;;;;;;;;;;4119604;34;20134;-69
2021/09/11 07:53:52;;;;;;;2.15;1.70;;;;;;;;;;4133259;34;20099;-69
2021/09/11 07:56:19;;;;;;;3.25;1.90;;;;;;;;;;4133357;34;20210;-68
2021/09/11 07:58:46;;;;;;;1.87;1.70;;;;;;;;;;4134074;34;20175;-68
2021/09/11 08:01:13;;;;;;;2.20;1.83;;;;;;;;;;4133733;34;20127;-68
2021/09/11 08:07:20;;;;;;;2.00;1.80;;;;;;;;;;4132664;34;20115;-72
2021/09/11 08:10:29;;;;;;;2.92;1.52;;;;;;;;;;4133967;34;20533;-70
2021/09/11 08:13:35;;;;;;;2.60;1.67;;;;;;;;;;4109906;34;20130;-71
2021/09/11 08:16:01;;;;;;;1.65;1.55;;;;;;;;;;4109868;34;20129;-66
2021/09/11 08:18:36;;;;;;;3.90;1.60;;;;;;;;;;4121934;34;20202;-67
2021/09/11 08:21:16;;;;;;;1.60;1.50;;;;;;;;;;4132720;34;20203;-70
2021/09/11 08:23:43;;;;;;;3.15;2.50;;;;;;;;;;4136190;34;20106;-67
2021/09/11 08:26:09;;;;;;;2.47;1.50;;;;;;;;;;4125818;34;20116;-66
2021/09/11 08:28:36;;;;;;;1.60;1.50;;;;;;;;;;4110752;34;20476;-70
2021/09/11 08:31:02;;;;;;;1.50;1.40;;;;;;;;;;4134986;34;20483;-71
2021/09/11 08:33:28;;;;;;;3.37;1.62;;;;;;;;;;4136190;34;20170;-70
2021/09/11 08:35:54;;;;;;;1.50;1.40;;;;;;;;;;4136537;34;20084;-71
2021/09/11 08:38:20;;;;;;;1.62;1.52;;;;;;;;;;4127759;34;20104;-72
2021/09/11 08:40:46;;;;;;;1.50;1.40;;;;;;;;;;4121492;34;20104;-69
2021/09/11 08:43:16;;;;;;;1.40;1.30;;;;;;;;;;4121329;34;20190;-72
2021/09/11 08:45:42;;;;;;;1.65;1.55;;;;;;;;;;4122852;34;20106;-69
2021/09/11 08:48:08;;;;;;;1.37;1.27;;;;;;;;;;4122164;34;20128;-68
2021/09/11 08:50:34;;;;;;;4.22;1.52;;;;;;;;;;4123750;34;20127;-69
2021/09/11 08:53:01;;;;;;;3.05;1.65;;;;;;;;;;4123497;34;20147;-69
2021/09/11 08:55:27;;;;;;;1.30;1.20;;;;;;;;;;4130169;34;20205;-69
2021/09/11 08:58:03;;;;;;;1.98;1.58;;;;;;;;;;4137964;34;20459;-69
2021/09/11 09:00:36;;;;;;;2.67;1.60;;;;;;;;;;4137880;34;20107;-70
2021/09/11 09:03:08;;;;;;;1.70;1.60;;;;;;;;;;4137872;34;20535;-69
2021/09/11 09:05:34;;;;;;;2.65;1.80;;;;;;;;;;4134925;34;20427;-69
2021/09/11 09:08:00;;;;;;;1.90;1.58;;;;;;;;;;4137860;34;20191;-67
2021/09/11 09:10:26;;;;;;;1.60;1.50;;;;;;;;;;4136524;34;20232;-67
2021/09/11 09:12:53;;;;;;;1.65;1.55;;;;;;;;;;4137636;34;20117;-67
2021/09/11 09:15:20;;;;;;;2.00;1.85;;;;;;;;;;4136360;34;20635;-67
2021/09/11 09:17:54;;;;;;;3.92;1.80;;;;;;;;;;4136559;34;20215;-70
2021/09/11 09:20:27;;;;;;;3.65;1.73;;;;;;;;;;4137959;34;20108;-70
2021/09/11 09:22:59;;;;;;;2.20;1.67;;;;;;;;;;4136465;34;20312;-70
2021/09/11 09:25:27;;;;;;;1.45;1.35;;;;;;;;;;4137655;34;20209;-71
2021/09/11 09:27:56;;;;;;;1.58;1.48;;;;;;;;;;4136383;34;20115;-67
2021/09/11 09:30:24;;;;;;;2.17;1.58;;;;;;;;;;4137865;34;20639;-68
2021/09/11 09:32:50;;;;;;;2.62;1.70;;;;;;;;;;4136669;34;20124;-70
2021/09/11 09:35:24;;;;;;;2.80;2.10;;;;;;;;;;4136131;34;20118;-68
2021/09/11 09:38:08;;;;;;;1.70;1.60;;;;;;;;;;4136329;34;20107;-70
2021/09/11 09:40:45;;;;;;;2.37;1.85;;;;;;;;;;4137429;34;20100;-70
2021/09/11 09:43:13;;;;;;;1.83;1.48;;;;;;;;;;4136189;34;20487;-69
2021/09/11 09:45:39;;;;;;;3.90;1.70;;;;;;;;;;4136121;34;20122;-67
2021/09/11 09:48:10;;;;;;;2.20;1.52;;;;;;;;;;4137547;34;20120;-69
2021/09/11 09:50:38;;;;;;;4.12;1.70;;;;;;;;;;4137781;34;20142;-68
2021/09/11 09:53:04;;;;;;;4.37;1.50;;;;;;;;;;4137415;34;20115;-66
2021/09/11 09:55:30;;;;;;;5.32;2.10;;;;;;;;;;4137317;34;20122;-66
2021/09/11 09:57:56;;;;;;;1.70;1.60;;;;;;;;;;4137266;34;20130;-66
2021/09/11 10:00:23;;;;;;;3.03;1.80;;;;;;;;;;4137218;34;20104;-66
2021/09/11 10:02:48;;;;;;;3.10;1.50;;;;;;;;;;4137591;34;20107;-69
2021/09/11 10:05:15;;;;;;;3.95;1.73;;;;;;;;;;4135933;34;20245;-69
2021/09/11 10:08:08;;;;;;;1.60;1.50;;;;;;;;;;4136140;34;20135;-69
2021/09/11 10:10:35;;;;;;;1.73;1.62;;;;;;;;;;4136489;34;20107;-70
2021/09/11 10:13:22;;;;;;;1.60;1.50;;;;;;;;;;4136041;34;20133;-68
2021/09/11 10:16:00;;;;;;;2.35;1.25;;;;;;;;;;4137444;34;20119;-69
2021/09/11 10:18:35;;;;;;;1.60;1.50;;;;;;;;;;4136063;34;20106;-67
2021/09/11 10:21:11;;;;;;;;;;;;;;;;;;4137587;34;20126;-70
2021/09/11 10:23:37;;;;;;;1.60;1.50;;;;;;;;;;4137584;34;20018;-68
2021/09/11 10:26:03;;;;;;;1.40;1.30;;;;;;;;;;4137178;34;20495;-69
2021/09/11 10:28:29;;;;;;;1.70;1.60;;;;;;;;;;4135897;34;20145;-66
2021/09/11 10:31:15;;;;;;;1.65;1.55;;;;;;;;;;4135732;34;20139;-69
2021/09/11 10:33:47;;;;;;;1.50;1.40;;;;;;;;;;4136982;34;20134;-69
2021/09/11 10:36:28;;;;;;;1.35;1.20;;;;;;;;;;4137165;34;20178;-69
2021/09/11 10:38:54;;;;;;;2.62;1.55;;;;;;;;;;4135796;34;20146;-67
2021/09/11 10:41:20;;;;;;;1.85;1.70;;;;;;;;;;4135157;34;20118;-68
2021/09/11 10:44:05;;;;;;;1.52;1.42;;;;;;;;;;4124573;34;20570;-67
2021/09/11 10:46:53;;;;;;;3.08;1.37;;;;;;;;;;4135813;34;20126;-69
2021/09/11 10:49:35;;;;;;;2.08;1.50;;;;;;;;;;4135836;34;20130;-68
2021/09/11 10:52:08;;;;;;;1.30;1.20;;;;;;;;;;4136926;34;20190;-68
2021/09/11 10:54:41;;;;;;;1.40;1.30;;;;;;;;;;4124576;34;20150;-67
2021/09/11 10:57:15;;;;;;;1.95;1.58;;;;;;;;;;4135876;34;20138;-70
2021/09/11 10:59:45;;;;;;;2.95;1.50;;;;;;;;;;4136964;34;20112;-69
2021/09/11 11:02:33;;;;;;;1.80;1.70;;;;;;;;;;4124646;34;20111;-70
2021/09/11 11:05:09;;;;;;;1.60;1.48;;;;;;;;;;4136938;34;20594;-69
2021/09/11 11:07:47;;;;;;;1.70;1.55;;;;;;;;;;4136850;34;20202;-66
2021/09/11 11:10:21;;;;;;;1.40;1.30;;;;;;;;;;4137043;34;20111;-66
2021/09/11 11:12:49;;;;;;;2.70;1.40;;;;;;;;;;4135105;34;20133;-66
2021/09/11 11:15:17;;;;;;;1.90;1.60;;;;;;;;;;4124541;34;20121;-66
2021/09/11 11:17:47;;;;;;;1.30;1.12;;;;;;;;;;4124456;34;20131;-66
2021/09/11 11:20:15;;;;;;;1.60;1.50;;;;;;;;;;4135605;34;20127;-66
2021/09/11 11:22:42;;;;;;;1.60;1.50;;;;;;;;;;4137060;34;20116;-68
2021/09/11 11:25:28;;;;;;;1.40;1.30;;;;;;;;;;4135319;34;20178;-69
2021/09/11 11:27:56;;;;;;;2.40;1.80;;;;;;;;;;4136698;34;20114;-68
2021/09/11 11:30:21;;;;;;;1.70;1.60;;;;;;;;;;4136868;34;20124;-70
2021/09/11 11:32:47;;;;;;;2.35;1.67;;;;;;;;;;4136650;34;20232;-65
2021/09/11 11:35:16;;;;;;;1.60;1.50;;;;;;;;;;4135569;34;20131;-67
2021/09/11 11:37:42;;;;;;;3.62;1.40;;;;;;;;;;4136665;34;20215;-66
2021/09/11 11:40:10;;;;;;;2.47;1.62;;;;;;;;;;4136902;34;20139;-70
2021/09/11 11:42:37;;;;;;;2.08;1.80;;;;;;;;;;4136623;34;20130;-68
2021/09/11 11:45:07;;;;;;;1.67;1.58;;;;;;;;;;4136713;34;20119;-68
2021/09/11 11:47:51;;;;;;;1.85;1.65;;;;;;;;;;4136536;34;20146;-67
2021/09/11 11:50:27;;;;;;;2.33;2.10;;;;;;;;;;4136614;34;20142;-68
2021/09/11 11:53:06;;;;;;;3.37;1.60;;;;;;;;;;4124789;34;20130;-68
2021/09/11 11:55:33;;;;;;;1.98;1.75;;;;;;;;;;4125042;34;20099;-65
2021/09/11 11:58:15;;;;;;;1.60;1.50;;;;;;;;;;4136598;34;20123;-66
2021/09/11 12:00:50;;;;;;;1.73;1.62;;;;;;;;;;4134980;34;20114;-70
2021/09/11 12:03:36;;;;;;;;;;;;;;;;;;4136936;34;20115;-70
2021/09/11 12:06:07;;;;;;;1.80;1.70;;;;;;;;;;4136596;34;20083;-65
2021/09/11 12:08:37;;;;;;;2.20;1.85;;;;;;;;;;4136791;34;20108;-65
2021/09/11 12:11:03;;;;;;;2.62;1.70;;;;;;;;;;4134808;34;20158;-69
2021/09/11 12:13:30;;;;;;;3.20;2.15;;;;;;;;;;4135118;34;20154;-68
2021/09/11 12:15:56;;;;;;;1.55;1.45;;;;;;;;;;4136281;34;20111;-66
2021/09/11 12:18:22;;;;;;;3.10;1.77;;;;;;;;;;4134854;34;20189;-68
2021/09/11 12:20:52;;;;;;;1.90;1.62;;;;;;;;;;4136302;34;20123;-66
2021/09/11 12:23:30;;;;;;;3.15;2.30;;;;;;;;;;4137848;34;20138;-66
2021/09/11 12:26:02;;;;;;;2.55;1.98;;;;;;;;;;4140609;34;20110;-68
2021/09/11 12:28:51;;;;;;;1.55;1.45;;;;;;;;;;4140688;34;20108;-66
2021/09/11 12:31:21;;;;;;;1.60;1.50;;;;;;;;;;4140613;34;20107;-69
2021/09/11 12:33:49;;;;;;;2.20;1.80;;;;;;;;;;4140663;34;20115;-66
2021/09/11 12:36:34;;;;;;;3.95;1.70;;;;;;;;;;4139209;34;20109;-68
2021/09/11 12:39:05;;;;;;;2.47;1.80;;;;;;;;;;4140531;34;20569;-66
2021/09/11 12:41:31;;;;;;;1.55;1.45;;;;;;;;;;4127857;34;20134;-71
2021/09/11 12:43:57;;;;;;;2.55;1.87;;;;;;;;;;4140519;34;20130;-68
2021/09/11 12:46:31;;;;;;;2.90;2.30;;;;;;;;;;4139166;34;20127;-68
2021/09/11 12:48:57;;;;;;;2.30;1.80;;;;;;;;;;4140442;34;20130;-68
2021/09/11 12:51:23;;;;;;;5.05;2.12;;;;;;;;;;4140279;34;20114;-72
2021/09/11 12:53:49;;;;;;;2.10;1.85;;;;;;;;;;4138926;34;20231;-69
2021/09/11 12:56:21;;;;;;;1.60;1.50;;;;;;;;;;4140255;34;20475;-71
2021/09/11 12:58:55;;;;;;;1.98;1.77;;;;;;;;;;4140284;34;20490;-72
2021/09/11 13:01:21;;;;;;;1.70;1.60;;;;;;;;;;4127823;34;20122;-72
2021/09/11 13:03:47;;;;;;;1.45;1.35;;;;;;;;;;4140179;34;20199;-66
2021/09/11 13:06:13;;;;;;;5.72;2.00;;;;;;;;;;4138903;34;20112;-66
2021/09/11 13:08:40;;;;;;;1.87;1.77;;;;;;;;;;4138709;34;20211;-65
2021/09/11 13:11:06;;;;;;;4.45;1.95;;;;;;;;;;4138884;34;20139;-67
2021/09/11 13:13:31;;;;;;;2.75;1.80;;;;;;;;;;4140078;34;20560;-66
2021/09/11 13:15:57;;;;;;;2.20;2.00;;;;;;;;;;4140082;34;20112;-67
2021/09/11 13:18:23;;;;;;;2.37;1.92;;;;;;;;;;4140204;34;20134;-67
2021/09/11 13:20:51;;;;;;;2.30;2.00;;;;;;;;;;4138698;34;20131;-67
2021/09/11 13:23:17;;;;;;;3.12;2.22;;;;;;;;;;4138619;34;20118;-68
2021/09/11 13:25:43;;;;;;;2.50;2.17;;;;;;;;;;4140309;34;20138;-69
2021/09/11 13:28:09;;;;;;;2.08;1.87;;;;;;;;;;4138505;34;20131;-68
2021/09/11 13:30:35;;;;;;;2.30;2.10;;;;;;;;;;4127587;34;20539;-68
2021/09/11 13:33:01;;;;;;;1.80;1.50;;;;;;;;;;4138522;34;20130;-70
2021/09/11 13:35:27;;;;;;;2.25;2.03;;;;;;;;;;4138597;34;20210;-70
2021/09/11 13:37:54;;;;;;;3.85;2.10;;;;;;;;;;4125224;34;20115;-72
2021/09/11 13:40:20;;;;;;;1.70;1.60;;;;;;;;;;4136545;34;20553;-71
2021/09/11 13:42:46;;;;;;;2.65;1.92;;;;;;;;;;4137627;34;20110;-69
2021/09/11 13:45:12;;;;;;;2.87;1.98;;;;;;;;;;4137582;34;20127;-70
2021/09/11 13:47:38;;;;;;;3.00;1.90;;;;;;;;;;4137269;34;20155;-69
2021/09/11 13:50:05;;;;;;;3.78;2.33;;;;;;;;;;4125150;34;20210;-69
2021/09/11 13:52:30;;;;;;;2.87;2.28;;;;;;;;;;4137671;34;20127;-70
2021/09/11 13:54:56;;;;;;;3.78;2.50;;;;;;;;;;4137844;34;20126;-69
2021/09/11 13:57:22;;;;;;;2.90;2.53;;;;;;;;;;4137423;34;20127;-70
2021/09/11 13:59:48;;;;;;;4.28;2.95;;;;;;;;;;4136065;34;20584;-70
2021/09/11 14:02:15;;;;;;;4.68;2.58;;;;;;;;;;4137325;34;20473;-66
2021/09/11 14:04:41;;;;;;;4.25;2.70;;;;;;;;;;4135976;34;20203;-68
2021/09/11 14:07:07;;;;;;;2.60;2.20;;;;;;;;;;4135731;34;20228;-69
2021/09/11 14:09:33;;;;;;;4.10;2.72;;;;;;;;;;4137580;34;20228;-69
2021/09/11 14:11:59;;;;;;;3.92;2.58;;;;;;;;;;4137297;34;20131;-66
2021/09/11 14:14:25;;;;;;;4.78;2.67;;;;;;;;;;4137426;34;20208;-71
2021/09/11 14:16:52;;;;;;;5.07;3.12;;;;;;;;;;4137108;34;20129;-68
2021/09/11 14:19:18;;;;;;;4.03;2.67;;;;;;;;;;4124933;34;20207;-69
2021/09/11 14:21:44;;;;;;;3.78;2.58;;;;;;;;;;4136959;34;20544;-70
2021/09/11 14:24:09;;;;;;;6.12;3.20;;;;;;;;;;4137342;34;20430;-68
2021/09/11 14:26:35;;;;;;;5.75;3.60;;;;;;;;;;4137301;34;20123;-68
2021/09/11 14:29:02;;;;;;;7.93;4.10;;;;;;;;;;4135721;34;20104;-68
2021/09/11 14:31:29;;;;;;;7.22;4.03;;;;;;;;;;4124915;34;20153;-66
2021/09/11 14:33:56;;;;;;;7.72;4.30;;;;;;;;;;4137125;34;20131;-67
2021/09/11 14:36:21;;;;;;;8.32;4.65;;;;;;;;;;4137116;34;20108;-71
2021/09/11 14:38:47;;;;;;;8.35;5.12;;;;;;;;;;4136980;34;20143;-66
2021/09/11 14:41:13;;;;;;;10.88;6.55;;;;;;;;;;4137332;34;20532;-68
2021/09/11 14:43:39;;;;;;;9.30;5.82;;;;;;;;;;4136881;34;20127;-66
2021/09/11 14:46:05;;;;;;;11.68;6.40;;;;;;;;;;4136911;34;20138;-64
2021/09/11 14:48:32;;;;;;;15.48;7.35;;;;;;;;;;4135055;34;20138;-66
2021/09/11 14:54:21;;;;;;;7.87;6.40;;;;;;;;;;4301996;29;20138;-72
2021/09/11 14:56:48;;;;;;;7.82;6.37;;;;;;;;;;4159194;34;20184;-71
2021/09/11 14:59:14;;;;;;;12.18;7.87;;;;;;;;;;4157984;34;20107;-68
2021/09/11 15:01:42;;;;;;;7.03;4.40;;;;;;;;;;4149207;34;20626;-69
2021/09/11 15:04:08;;;;;;;7.85;4.72;;;;;;;;;;4160141;34;20129;-68
2021/09/11 15:06:34;;;;;;;8.15;5.93;;;;;;;;;;4150455;34;20135;-68
2021/09/11 15:09:00;;;;;;;6.00;4.00;;;;;;;;;;4160295;34;20119;-66
2021/09/11 15:11:26;;;;;;;8.07;4.90;;;;;;;;;;4160199;34;20410;-68
2021/09/11 15:13:52;;;;;;;12.88;4.60;;;;;;;;;;4150720;34;20119;-66
2021/09/11 15:16:22;;;;;;;8.38;4.80;;;;;;;;;;4150224;34;20133;-67